Accueil
METAR-TAF:

METAR-TAF

Aéroports :

Foz do Iguaçu, Paraná, Brésil

latitude: 25-31S, longitude: 054-35W, altitude: 180 m

Observation

Le bulletin a été fait il y a 59 minutes, à 03:00 UTC
Vent 6 kt de sud-est
Température 18°C
Humidité 68%
Pression 1014 hPa
Visibilité 10 km ou plus
pas de nuages en-dessous de 1500 mètres et pas de cumulonimbus.

METAR: SBFI 240300Z 14006KT CAVOK 18/12 Q1014

Heure: 01:59 (03:59 UTC)

Prévision

Le bulletin a été fait il y a 8 heures et 29 minutes, à 19:30 UTC
Prévision valable du 24 à 00 UTC au 24 à 24 UTC
Vent 2 kt de sud
Visibilité 10 km ou plus
pas de nuages en-dessous de 1500 mètres et pas de cumulonimbus.
Evoluant progressivement
du 24 à 00 UTC au 24 à 02 UTC
Vent 5 kt de est
Evoluant progressivement
du 24 à 10 UTC au 24 à 12 UTC
Vent 8 kt de nord/nord-est

TAF: SBFI 231930Z 2400/2424 18002KT CAVOK TN18/2408Z TX30/2418Z BECMG 2400/2402 09005KT BECMG 2410/2412 02008KT RMK PDV

Observations et prévisions météorologiques de plus de 4000 aéroports (messages METAR et TAF).

Les stations disponibles sont représentées par des disques jaunes et rouges sur la carte.

Passer la souris dessus pour voir le nom de la station.

Cliquer dessus pour voir les observations et prévisions météorologiques.

Pour changer de carte: cliquez sur les boutons verts avec une croix noire pour zoomer, sur le bouton vert avec un tiret pour effectuer un zoom arrière, ou sur les flèches vertes pour les cartes adjacentes.


METAR-TAF: